sensor_id;sensor_type;location;lat;lon;timestamp;P1;durP1;ratioP1;P2;durP2;ratioP2
80199;SDS011;69520;44.900;-0.764;2023-07-13T00:02:07;8.53;;;3.20;;
80199;SDS011;69520;44.900;-0.764;2023-07-13T00:04:33;11.40;;;3.25;;
80199;SDS011;69520;44.900;-0.764;2023-07-13T00:06:59;9.32;;;3.17;;
80199;SDS011;69520;44.900;-0.764;2023-07-13T00:09:25;8.98;;;2.97;;
80199;SDS011;69520;44.900;-0.764;2023-07-13T00:11:53;8.00;;;3.88;;
80199;SDS011;69520;44.900;-0.764;2023-07-13T00:14:19;12.07;;;3.23;;
80199;SDS011;69520;44.900;-0.764;2023-07-13T00:16:46;9.10;;;3.55;;
80199;SDS011;69520;44.900;-0.764;2023-07-13T00:19:12;9.10;;;3.30;;
80199;SDS011;69520;44.900;-0.764;2023-07-13T00:21:39;9.10;;;3.28;;
80199;SDS011;69520;44.900;-0.764;2023-07-13T00:24:05;8.18;;;3.28;;
80199;SDS011;69520;44.900;-0.764;2023-07-13T00:26:32;8.63;;;3.30;;
80199;SDS011;69520;44.900;-0.764;2023-07-13T00:28:58;9.32;;;3.10;;
80199;SDS011;69520;44.900;-0.764;2023-07-13T00:31:25;8.85;;;3.33;;
80199;SDS011;69520;44.900;-0.764;2023-07-13T00:33:51;8.68;;;3.50;;
80199;SDS011;69520;44.900;-0.764;2023-07-13T00:36:17;7.60;;;3.13;;
80199;SDS011;69520;44.900;-0.764;2023-07-13T00:38:43;7.17;;;3.10;;
80199;SDS011;69520;44.900;-0.764;2023-07-13T00:41:09;6.35;;;2.92;;
80199;SDS011;69520;44.900;-0.764;2023-07-13T00:43:36;7.18;;;3.13;;
80199;SDS011;69520;44.900;-0.764;2023-07-13T00:46:10;8.40;;;2.85;;
80199;SDS011;69520;44.900;-0.764;2023-07-13T00:48:36;9.38;;;2.95;;
80199;SDS011;69520;44.900;-0.764;2023-07-13T00:51:03;7.80;;;2.97;;
80199;SDS011;69520;44.900;-0.764;2023-07-13T00:53:29;7.82;;;3.00;;
80199;SDS011;69520;44.900;-0.764;2023-07-13T00:55:56;8.90;;;3.42;;
80199;SDS011;69520;44.900;-0.764;2023-07-13T00:58:24;8.40;;;3.28;;
80199;SDS011;69520;44.900;-0.764;2023-07-13T01:00:51;9.82;;;3.33;;
80199;SDS011;69520;44.900;-0.764;2023-07-13T01:03:17;8.50;;;2.77;;
80199;SDS011;69520;44.900;-0.764;2023-07-13T01:05:44;7.70;;;2.95;;
80199;SDS011;69520;44.900;-0.764;2023-07-13T01:08:12;7.60;;;3.28;;
80199;SDS011;69520;44.900;-0.764;2023-07-13T01:10:38;7.53;;;2.72;;
80199;SDS011;69520;44.900;-0.764;2023-07-13T01:13:09;7.97;;;3.03;;
80199;SDS011;69520;44.900;-0.764;2023-07-13T01:15:37;10.87;;;3.03;;
80199;SDS011;69520;44.900;-0.764;2023-07-13T01:18:05;10.25;;;2.95;;
80199;SDS011;69520;44.900;-0.764;2023-07-13T01:20:31;6.93;;;2.75;;
80199;SDS011;69520;44.900;-0.764;2023-07-13T01:23:02;8.70;;;3.25;;
80199;SDS011;69520;44.900;-0.764;2023-07-13T01:25:28;8.25;;;3.08;;
80199;SDS011;69520;44.900;-0.764;2023-07-13T01:27:54;10.20;;;3.07;;
80199;SDS011;69520;44.900;-0.764;2023-07-13T01:30:20;7.50;;;2.83;;
80199;SDS011;69520;44.900;-0.764;2023-07-13T01:32:46;8.68;;;3.20;;
80199;SDS011;69520;44.900;-0.764;2023-07-13T01:35:12;8.90;;;3.00;;
80199;SDS011;69520;44.900;-0.764;2023-07-13T01:37:38;6.70;;;3.00;;
80199;SDS011;69520;44.900;-0.764;2023-07-13T01:40:05;9.50;;;3.10;;
80199;SDS011;69520;44.900;-0.764;2023-07-13T01:42:33;7.60;;;3.05;;
80199;SDS011;69520;44.900;-0.764;2023-07-13T01:44:59;9.60;;;3.17;;
80199;SDS011;69520;44.900;-0.764;2023-07-13T01:47:25;10.70;;;3.35;;
80199;SDS011;69520;44.900;-0.764;2023-07-13T01:49:52;8.52;;;3.10;;
80199;SDS011;69520;44.900;-0.764;2023-07-13T01:52:18;8.03;;;2.80;;
80199;SDS011;69520;44.900;-0.764;2023-07-13T01:54:44;7.78;;;2.80;;
80199;SDS011;69520;44.900;-0.764;2023-07-13T01:57:10;6.85;;;2.83;;
80199;SDS011;69520;44.900;-0.764;2023-07-13T01:59:36;7.97;;;2.97;;
80199;SDS011;69520;44.900;-0.764;2023-07-13T02:02:02;7.93;;;2.88;;
80199;SDS011;69520;44.900;-0.764;2023-07-13T02:04:28;8.37;;;3.10;;
80199;SDS011;69520;44.900;-0.764;2023-07-13T02:06:54;7.75;;;3.03;;
80199;SDS011;69520;44.900;-0.764;2023-07-13T02:09:20;8.88;;;2.83;;
80199;SDS011;69520;44.900;-0.764;2023-07-13T02:11:47;6.93;;;2.75;;
80199;SDS011;69520;44.900;-0.764;2023-07-13T02:14:13;8.13;;;3.10;;
80199;SDS011;69520;44.900;-0.764;2023-07-13T02:16:40;7.03;;;2.80;;
80199;SDS011;69520;44.900;-0.764;2023-07-13T02:19:07;8.25;;;2.85;;
80199;SDS011;69520;44.900;-0.764;2023-07-13T02:21:33;8.20;;;2.97;;
80199;SDS011;69520;44.900;-0.764;2023-07-13T02:23:59;7.15;;;2.70;;
80199;SDS011;69520;44.900;-0.764;2023-07-13T02:26:25;7.10;;;3.05;;
80199;SDS011;69520;44.900;-0.764;2023-07-13T02:28:51;8.33;;;2.87;;
80199;SDS011;69520;44.900;-0.764;2023-07-13T02:31:17;8.45;;;2.58;;
80199;SDS011;69520;44.900;-0.764;2023-07-13T02:33:43;7.10;;;2.80;;
80199;SDS011;69520;44.900;-0.764;2023-07-13T02:36:09;7.80;;;2.45;;
80199;SDS011;69520;44.900;-0.764;2023-07-13T02:38:35;8.02;;;2.72;;
80199;SDS011;69520;44.900;-0.764;2023-07-13T02:41:02;8.27;;;2.70;;
80199;SDS011;69520;44.900;-0.764;2023-07-13T02:43:29;7.10;;;2.42;;
80199;SDS011;69520;44.900;-0.764;2023-07-13T02:45:55;6.68;;;2.50;;
80199;SDS011;69520;44.900;-0.764;2023-07-13T02:48:21;6.47;;;2.40;;
80199;SDS011;69520;44.900;-0.764;2023-07-13T02:50:47;6.85;;;2.55;;
80199;SDS011;69520;44.900;-0.764;2023-07-13T02:53:13;7.23;;;2.20;;
80199;SDS011;69520;44.900;-0.764;2023-07-13T02:55:39;6.85;;;2.30;;
80199;SDS011;69520;44.900;-0.764;2023-07-13T02:58:06;7.50;;;2.63;;
80199;SDS011;69520;44.900;-0.764;2023-07-13T03:00:32;6.70;;;2.45;;
80199;SDS011;69520;44.900;-0.764;2023-07-13T03:02:58;8.40;;;2.50;;
80199;SDS011;69520;44.900;-0.764;2023-07-13T03:05:25;7.47;;;2.50;;
80199;SDS011;69520;44.900;-0.764;2023-07-13T03:07:51;7.18;;;2.70;;
80199;SDS011;69520;44.900;-0.764;2023-07-13T03:10:17;8.80;;;2.60;;
80199;SDS011;69520;44.900;-0.764;2023-07-13T03:12:43;6.20;;;2.10;;
80199;SDS011;69520;44.900;-0.764;2023-07-13T03:15:09;7.60;;;2.35;;
80199;SDS011;69520;44.900;-0.764;2023-07-13T03:17:35;7.10;;;2.47;;
80199;SDS011;69520;44.900;-0.764;2023-07-13T03:20:01;5.90;;;2.30;;
80199;SDS011;69520;44.900;-0.764;2023-07-13T03:22:27;7.75;;;2.80;;
80199;SDS011;69520;44.900;-0.764;2023-07-13T03:24:54;9.30;;;2.60;;
80199;SDS011;69520;44.900;-0.764;2023-07-13T03:27:20;6.40;;;2.50;;
80199;SDS011;69520;44.900;-0.764;2023-07-13T03:29:46;6.63;;;2.30;;
80199;SDS011;69520;44.900;-0.764;2023-07-13T03:32:12;5.88;;;2.08;;
80199;SDS011;69520;44.900;-0.764;2023-07-13T03:34:38;7.40;;;2.65;;
80199;SDS011;69520;44.900;-0.764;2023-07-13T03:37:04;7.72;;;2.00;;
80199;SDS011;69520;44.900;-0.764;2023-07-13T03:39:30;6.53;;;2.40;;
80199;SDS011;69520;44.900;-0.764;2023-07-13T03:41:56;8.60;;;2.30;;
80199;SDS011;69520;44.900;-0.764;2023-07-13T03:44:22;6.55;;;2.35;;
80199;SDS011;69520;44.900;-0.764;2023-07-13T03:46:48;7.15;;;2.50;;
80199;SDS011;69520;44.900;-0.764;2023-07-13T03:49:14;7.18;;;2.35;;
80199;SDS011;69520;44.900;-0.764;2023-07-13T03:51:41;6.95;;;2.20;;
80199;SDS011;69520;44.900;-0.764;2023-07-13T03:54:07;5.50;;;2.30;;
80199;SDS011;69520;44.900;-0.764;2023-07-13T03:56:33;7.90;;;2.03;;
80199;SDS011;69520;44.900;-0.764;2023-07-13T03:58:59;5.32;;;1.95;;
80199;SDS011;69520;44.900;-0.764;2023-07-13T04:01:25;6.05;;;1.88;;
80199;SDS011;69520;44.900;-0.764;2023-07-13T04:03:51;6.07;;;1.80;;
80199;SDS011;69520;44.900;-0.764;2023-07-13T04:06:22;5.30;;;1.80;;
80199;SDS011;69520;44.900;-0.764;2023-07-13T04:08:50;6.60;;;2.00;;
80199;SDS011;69520;44.900;-0.764;2023-07-13T04:11:16;6.63;;;1.55;;
80199;SDS011;69520;44.900;-0.764;2023-07-13T04:13:43;6.95;;;1.85;;
80199;SDS011;69520;44.900;-0.764;2023-07-13T04:16:09;13.15;;;5.78;;
80199;SDS011;69520;44.900;-0.764;2023-07-13T04:18:36;7.80;;;2.90;;
80199;SDS011;69520;44.900;-0.764;2023-07-13T04:21:02;9.05;;;3.30;;
80199;SDS011;69520;44.900;-0.764;2023-07-13T04:23:28;7.50;;;2.45;;
80199;SDS011;69520;44.900;-0.764;2023-07-13T04:25:54;7.68;;;2.40;;
80199;SDS011;69520;44.900;-0.764;2023-07-13T04:28:23;5.82;;;1.80;;
80199;SDS011;69520;44.900;-0.764;2023-07-13T04:30:49;6.50;;;1.97;;
80199;SDS011;69520;44.900;-0.764;2023-07-13T04:33:16;5.82;;;1.80;;
80199;SDS011;69520;44.900;-0.764;2023-07-13T04:35:42;8.02;;;2.95;;
80199;SDS011;69520;44.900;-0.764;2023-07-13T04:38:08;7.68;;;3.30;;
80199;SDS011;69520;44.900;-0.764;2023-07-13T04:40:36;6.85;;;2.70;;
80199;SDS011;69520;44.900;-0.764;2023-07-13T04:43:02;7.83;;;2.10;;
80199;SDS011;69520;44.900;-0.764;2023-07-13T04:45:28;7.70;;;2.30;;
80199;SDS011;69520;44.900;-0.764;2023-07-13T04:47:56;7.22;;;2.17;;
80199;SDS011;69520;44.900;-0.764;2023-07-13T04:50:22;7.70;;;2.40;;
80199;SDS011;69520;44.900;-0.764;2023-07-13T04:52:51;9.40;;;2.55;;
80199;SDS011;69520;44.900;-0.764;2023-07-13T04:55:17;6.43;;;2.00;;
80199;SDS011;69520;44.900;-0.764;2023-07-13T04:57:43;7.15;;;2.60;;
80199;SDS011;69520;44.900;-0.764;2023-07-13T05:00:10;8.32;;;2.30;;
80199;SDS011;69520;44.900;-0.764;2023-07-13T05:02:37;7.28;;;2.20;;
80199;SDS011;69520;44.900;-0.764;2023-07-13T05:05:03;5.47;;;1.90;;
80199;SDS011;69520;44.900;-0.764;2023-07-13T05:07:29;6.20;;;2.00;;
80199;SDS011;69520;44.900;-0.764;2023-07-13T05:09:57;7.13;;;2.10;;
80199;SDS011;69520;44.900;-0.764;2023-07-13T05:12:23;6.80;;;2.10;;
80199;SDS011;69520;44.900;-0.764;2023-07-13T05:14:49;8.18;;;2.15;;
80199;SDS011;69520;44.900;-0.764;2023-07-13T05:17:15;6.03;;;2.03;;
80199;SDS011;69520;44.900;-0.764;2023-07-13T05:19:41;5.90;;;1.93;;
80199;SDS011;69520;44.900;-0.764;2023-07-13T05:22:08;5.43;;;1.70;;
80199;SDS011;69520;44.900;-0.764;2023-07-13T05:24:34;6.40;;;2.22;;
80199;SDS011;69520;44.900;-0.764;2023-07-13T05:27:00;6.22;;;2.00;;
80199;SDS011;69520;44.900;-0.764;2023-07-13T05:29:26;6.50;;;2.00;;
80199;SDS011;69520;44.900;-0.764;2023-07-13T05:31:52;7.00;;;1.90;;
80199;SDS011;69520;44.900;-0.764;2023-07-13T05:34:18;6.35;;;2.30;;
80199;SDS011;69520;44.900;-0.764;2023-07-13T05:36:44;7.32;;;2.38;;
80199;SDS011;69520;44.900;-0.764;2023-07-13T05:39:10;6.32;;;1.80;;
80199;SDS011;69520;44.900;-0.764;2023-07-13T05:41:36;6.68;;;2.30;;
80199;SDS011;69520;44.900;-0.764;2023-07-13T05:44:02;6.57;;;2.10;;
80199;SDS011;69520;44.900;-0.764;2023-07-13T05:46:28;7.38;;;2.30;;
80199;SDS011;69520;44.900;-0.764;2023-07-13T05:48:54;6.78;;;2.17;;
80199;SDS011;69520;44.900;-0.764;2023-07-13T05:51:20;10.05;;;5.15;;
80199;SDS011;69520;44.900;-0.764;2023-07-13T05:53:46;15.32;;;8.73;;
80199;SDS011;69520;44.900;-0.764;2023-07-13T05:56:12;9.87;;;5.27;;
80199;SDS011;69520;44.900;-0.764;2023-07-13T05:58:38;8.00;;;3.25;;
80199;SDS011;69520;44.900;-0.764;2023-07-13T06:01:06;6.43;;;2.40;;
80199;SDS011;69520;44.900;-0.764;2023-07-13T06:03:32;6.53;;;2.20;;
80199;SDS011;69520;44.900;-0.764;2023-07-13T06:05:59;5.63;;;1.75;;
80199;SDS011;69520;44.900;-0.764;2023-07-13T06:08:25;6.67;;;2.10;;
80199;SDS011;69520;44.900;-0.764;2023-07-13T06:10:51;7.68;;;2.30;;
80199;SDS011;69520;44.900;-0.764;2023-07-13T06:13:17;6.70;;;2.10;;
80199;SDS011;69520;44.900;-0.764;2023-07-13T06:15:47;7.03;;;1.90;;
80199;SDS011;69520;44.900;-0.764;2023-07-13T06:18:14;6.03;;;2.05;;
80199;SDS011;69520;44.900;-0.764;2023-07-13T06:20:40;7.50;;;2.20;;
80199;SDS011;69520;44.900;-0.764;2023-07-13T06:23:06;6.57;;;2.30;;
80199;SDS011;69520;44.900;-0.764;2023-07-13T06:25:32;6.45;;;2.25;;
80199;SDS011;69520;44.900;-0.764;2023-07-13T06:27:57;6.55;;;2.30;;
80199;SDS011;69520;44.900;-0.764;2023-07-13T06:30:23;7.78;;;1.60;;
80199;SDS011;69520;44.900;-0.764;2023-07-13T06:32:50;7.77;;;2.00;;
80199;SDS011;69520;44.900;-0.764;2023-07-13T06:35:16;8.93;;;2.05;;
80199;SDS011;69520;44.900;-0.764;2023-07-13T06:37:42;7.32;;;1.67;;
80199;SDS011;69520;44.900;-0.764;2023-07-13T06:40:08;6.35;;;1.80;;
80199;SDS011;69520;44.900;-0.764;2023-07-13T06:42:34;5.60;;;1.55;;
80199;SDS011;69520;44.900;-0.764;2023-07-13T06:45:00;6.60;;;1.40;;
80199;SDS011;69520;44.900;-0.764;2023-07-13T06:47:26;8.02;;;1.83;;
80199;SDS011;69520;44.900;-0.764;2023-07-13T06:49:52;8.43;;;1.77;;
80199;SDS011;69520;44.900;-0.764;2023-07-13T06:52:18;6.38;;;1.67;;
80199;SDS011;69520;44.900;-0.764;2023-07-13T06:54:44;7.22;;;1.73;;
80199;SDS011;69520;44.900;-0.764;2023-07-13T06:57:10;8.53;;;1.70;;
80199;SDS011;69520;44.900;-0.764;2023-07-13T06:59:36;8.45;;;1.75;;
80199;SDS011;69520;44.900;-0.764;2023-07-13T07:02:02;10.30;;;1.75;;
80199;SDS011;69520;44.900;-0.764;2023-07-13T07:04:28;8.70;;;2.00;;
80199;SDS011;69520;44.900;-0.764;2023-07-13T07:06:54;6.82;;;1.38;;
80199;SDS011;69520;44.900;-0.764;2023-07-13T07:09:23;5.67;;;1.70;;
80199;SDS011;69520;44.900;-0.764;2023-07-13T07:11:49;5.82;;;1.40;;
80199;SDS011;69520;44.900;-0.764;2023-07-13T07:14:15;8.27;;;1.40;;
80199;SDS011;69520;44.900;-0.764;2023-07-13T07:16:41;5.75;;;1.58;;
80199;SDS011;69520;44.900;-0.764;2023-07-13T07:19:07;6.45;;;1.50;;
80199;SDS011;69520;44.900;-0.764;2023-07-13T07:21:33;7.93;;;1.53;;
80199;SDS011;69520;44.900;-0.764;2023-07-13T07:23:59;6.13;;;1.50;;
80199;SDS011;69520;44.900;-0.764;2023-07-13T07:26:25;9.80;;;2.05;;
80199;SDS011;69520;44.900;-0.764;2023-07-13T07:28:51;9.90;;;2.33;;
80199;SDS011;69520;44.900;-0.764;2023-07-13T07:31:17;7.15;;;1.30;;
80199;SDS011;69520;44.900;-0.764;2023-07-13T07:33:43;7.13;;;1.47;;
80199;SDS011;69520;44.900;-0.764;2023-07-13T07:36:09;6.88;;;1.40;;
80199;SDS011;69520;44.900;-0.764;2023-07-13T07:38:36;8.65;;;1.40;;
80199;SDS011;69520;44.900;-0.764;2023-07-13T07:41:05;7.13;;;1.38;;
80199;SDS011;69520;44.900;-0.764;2023-07-13T07:43:31;5.60;;;1.30;;
80199;SDS011;69520;44.900;-0.764;2023-07-13T07:45:57;7.77;;;1.23;;
80199;SDS011;69520;44.900;-0.764;2023-07-13T07:48:23;6.43;;;1.48;;
80199;SDS011;69520;44.900;-0.764;2023-07-13T07:50:49;6.15;;;1.23;;
80199;SDS011;69520;44.900;-0.764;2023-07-13T07:53:15;6.70;;;1.00;;
80199;SDS011;69520;44.900;-0.764;2023-07-13T07:55:41;7.32;;;1.85;;
80199;SDS011;69520;44.900;-0.764;2023-07-13T07:58:07;5.53;;;1.10;;
80199;SDS011;69520;44.900;-0.764;2023-07-13T08:00:34;6.03;;;1.20;;
80199;SDS011;69520;44.900;-0.764;2023-07-13T08:03:00;5.70;;;1.25;;
80199;SDS011;69520;44.900;-0.764;2023-07-13T08:05:26;5.93;;;1.25;;
80199;SDS011;69520;44.900;-0.764;2023-07-13T08:07:52;6.05;;;1.23;;
80199;SDS011;69520;44.900;-0.764;2023-07-13T08:10:18;4.33;;;1.10;;
80199;SDS011;69520;44.900;-0.764;2023-07-13T08:12:45;6.40;;;1.20;;
80199;SDS011;69520;44.900;-0.764;2023-07-13T08:15:11;4.53;;;1.02;;
80199;SDS011;69520;44.900;-0.764;2023-07-13T08:17:38;6.38;;;1.10;;
80199;SDS011;69520;44.900;-0.764;2023-07-13T08:20:04;5.97;;;1.13;;
80199;SDS011;69520;44.900;-0.764;2023-07-13T08:22:30;5.70;;;1.10;;
80199;SDS011;69520;44.900;-0.764;2023-07-13T08:24:56;8.23;;;1.73;;
80199;SDS011;69520;44.900;-0.764;2023-07-13T08:27:23;4.80;;;0.90;;
80199;SDS011;69520;44.900;-0.764;2023-07-13T08:29:49;6.20;;;1.08;;
80199;SDS011;69520;44.900;-0.764;2023-07-13T08:32:15;5.55;;;1.10;;
80199;SDS011;69520;44.900;-0.764;2023-07-13T08:34:42;5.17;;;1.20;;
80199;SDS011;69520;44.900;-0.764;2023-07-13T08:37:08;5.15;;;0.80;;
80199;SDS011;69520;44.900;-0.764;2023-07-13T08:39:34;6.32;;;1.15;;
80199;SDS011;69520;44.900;-0.764;2023-07-13T08:42:02;7.18;;;1.30;;
80199;SDS011;69520;44.900;-0.764;2023-07-13T08:47:14;4.23;;;0.90;;
80199;SDS011;69520;44.900;-0.764;2023-07-13T08:49:41;5.85;;;1.10;;
80199;SDS011;69520;44.900;-0.764;2023-07-13T08:52:12;5.85;;;1.02;;
80199;SDS011;69520;44.900;-0.764;2023-07-13T08:54:44;5.90;;;0.90;;
80199;SDS011;69520;44.900;-0.764;2023-07-13T08:57:15;5.65;;;1.00;;
80199;SDS011;69520;44.900;-0.764;2023-07-13T08:59:42;5.37;;;0.73;;
80199;SDS011;69520;44.900;-0.764;2023-07-13T09:04:42;5.60;;;0.98;;
80199;SDS011;69520;44.900;-0.764;2023-07-13T09:14:41;3.80;;;0.80;;
80199;SDS011;69520;44.900;-0.764;2023-07-13T09:17:11;3.70;;;0.77;;
80199;SDS011;69520;44.900;-0.764;2023-07-13T09:19:38;4.68;;;0.82;;
80199;SDS011;69520;44.900;-0.764;2023-07-13T09:22:06;4.57;;;0.90;;
80199;SDS011;69520;44.900;-0.764;2023-07-13T09:24:38;4.33;;;0.90;;
80199;SDS011;69520;44.900;-0.764;2023-07-13T09:27:09;5.55;;;1.25;;
80199;SDS011;69520;44.900;-0.764;2023-07-13T09:29:37;4.90;;;0.90;;
80199;SDS011;69520;44.900;-0.764;2023-07-13T09:32:09;4.30;;;0.88;;
80199;SDS011;69520;44.900;-0.764;2023-07-13T09:34:36;3.83;;;0.70;;
80199;SDS011;69520;44.900;-0.764;2023-07-13T09:37:02;9.73;;;1.10;;
80199;SDS011;69520;44.900;-0.764;2023-07-13T09:39:30;3.40;;;0.88;;
80199;SDS011;69520;44.900;-0.764;2023-07-13T09:42:11;4.45;;;0.93;;
80199;SDS011;69520;44.900;-0.764;2023-07-13T09:44:39;4.03;;;0.63;;
80199;SDS011;69520;44.900;-0.764;2023-07-13T09:47:16;4.00;;;0.80;;
80199;SDS011;69520;44.900;-0.764;2023-07-13T09:49:42;3.27;;;0.60;;
80199;SDS011;69520;44.900;-0.764;2023-07-13T09:52:12;3.63;;;0.75;;
80199;SDS011;69520;44.900;-0.764;2023-07-13T09:54:39;3.28;;;0.80;;
80199;SDS011;69520;44.900;-0.764;2023-07-13T09:57:15;5.00;;;0.80;;
80199;SDS011;69520;44.900;-0.764;2023-07-13T09:59:45;4.45;;;0.70;;
80199;SDS011;69520;44.900;-0.764;2023-07-13T10:02:29;3.33;;;0.70;;
80199;SDS011;69520;44.900;-0.764;2023-07-13T10:04:58;3.05;;;0.70;;
80199;SDS011;69520;44.900;-0.764;2023-07-13T10:07:25;5.68;;;0.70;;
80199;SDS011;69520;44.900;-0.764;2023-07-13T10:09:52;4.13;;;0.85;;
80199;SDS011;69520;44.900;-0.764;2023-07-13T10:12:19;3.75;;;0.80;;
80199;SDS011;69520;44.900;-0.764;2023-07-13T10:14:45;4.13;;;0.73;;
80199;SDS011;69520;44.900;-0.764;2023-07-13T10:17:12;4.30;;;0.70;;
80199;SDS011;69520;44.900;-0.764;2023-07-13T10:19:39;4.47;;;0.80;;
80199;SDS011;69520;44.900;-0.764;2023-07-13T10:24:37;5.93;;;0.80;;
80199;SDS011;69520;44.900;-0.764;2023-07-13T10:29:30;3.08;;;0.70;;
80199;SDS011;69520;44.900;-0.764;2023-07-13T10:31:58;3.58;;;0.70;;
80199;SDS011;69520;44.900;-0.764;2023-07-13T10:34:25;3.28;;;0.80;;
80199;SDS011;69520;44.900;-0.764;2023-07-13T10:36:51;3.22;;;0.80;;
80199;SDS011;69520;44.900;-0.764;2023-07-13T10:39:19;3.63;;;0.70;;
80199;SDS011;69520;44.900;-0.764;2023-07-13T10:41:48;2.90;;;0.68;;
80199;SDS011;69520;44.900;-0.764;2023-07-13T10:44:18;3.40;;;0.88;;
80199;SDS011;69520;44.900;-0.764;2023-07-13T10:46:44;3.05;;;0.63;;
80199;SDS011;69520;44.900;-0.764;2023-07-13T10:49:11;4.15;;;0.93;;
80199;SDS011;69520;44.900;-0.764;2023-07-13T10:51:37;4.53;;;0.80;;
80199;SDS011;69520;44.900;-0.764;2023-07-13T10:54:11;4.30;;;0.80;;
80199;SDS011;69520;44.900;-0.764;2023-07-13T10:56:41;3.50;;;0.80;;
80199;SDS011;69520;44.900;-0.764;2023-07-13T10:59:18;3.53;;;0.80;;
80199;SDS011;69520;44.900;-0.764;2023-07-13T11:04:11;3.67;;;0.70;;
80199;SDS011;69520;44.900;-0.764;2023-07-13T11:06:38;3.67;;;0.73;;
80199;SDS011;69520;44.900;-0.764;2023-07-13T11:11:47;2.95;;;0.70;;
80199;SDS011;69520;44.900;-0.764;2023-07-13T11:16:46;3.87;;;0.80;;
80199;SDS011;69520;44.900;-0.764;2023-07-13T11:24:28;3.33;;;0.73;;
80199;SDS011;69520;44.900;-0.764;2023-07-13T11:26:55;4.93;;;0.93;;
80199;SDS011;69520;44.900;-0.764;2023-07-13T11:31:58;3.88;;;0.80;;
80199;SDS011;69520;44.900;-0.764;2023-07-13T11:34:31;3.17;;;0.80;;
80199;SDS011;69520;44.900;-0.764;2023-07-13T11:36:59;3.20;;;0.70;;
80199;SDS011;69520;44.900;-0.764;2023-07-13T11:39:33;3.70;;;0.90;;
80199;SDS011;69520;44.900;-0.764;2023-07-13T11:42:02;3.73;;;0.80;;
80199;SDS011;69520;44.900;-0.764;2023-07-13T11:44:29;4.60;;;0.90;;
80199;SDS011;69520;44.900;-0.764;2023-07-13T11:46:56;4.43;;;0.80;;
80199;SDS011;69520;44.900;-0.764;2023-07-13T11:49:31;3.22;;;0.70;;
80199;SDS011;69520;44.900;-0.764;2023-07-13T11:51:57;3.70;;;0.95;;
80199;SDS011;69520;44.900;-0.764;2023-07-13T11:54:30;3.13;;;0.77;;
80199;SDS011;69520;44.900;-0.764;2023-07-13T11:56:58;4.22;;;0.77;;
80199;SDS011;69520;44.900;-0.764;2023-07-13T11:59:26;4.30;;;1.00;;
80199;SDS011;69520;44.900;-0.764;2023-07-13T12:01:54;2.80;;;0.70;;
80199;SDS011;69520;44.900;-0.764;2023-07-13T12:04:28;3.60;;;0.90;;
80199;SDS011;69520;44.900;-0.764;2023-07-13T12:07:15;3.87;;;0.80;;
80199;SDS011;69520;44.900;-0.764;2023-07-13T12:09:42;4.03;;;0.88;;
80199;SDS011;69520;44.900;-0.764;2023-07-13T12:12:14;3.80;;;1.00;;
80199;SDS011;69520;44.900;-0.764;2023-07-13T12:14:42;3.72;;;0.73;;
80199;SDS011;69520;44.900;-0.764;2023-07-13T12:17:19;3.97;;;0.90;;
80199;SDS011;69520;44.900;-0.764;2023-07-13T12:19:45;3.80;;;1.00;;
80199;SDS011;69520;44.900;-0.764;2023-07-13T12:22:13;3.58;;;0.80;;
80199;SDS011;69520;44.900;-0.764;2023-07-13T12:24:40;3.50;;;0.90;;
80199;SDS011;69520;44.900;-0.764;2023-07-13T12:27:13;3.72;;;0.70;;
80199;SDS011;69520;44.900;-0.764;2023-07-13T12:29:49;4.53;;;0.90;;
80199;SDS011;69520;44.900;-0.764;2023-07-13T12:32:17;3.13;;;0.90;;
80199;SDS011;69520;44.900;-0.764;2023-07-13T12:34:50;3.50;;;0.80;;
80199;SDS011;69520;44.900;-0.764;2023-07-13T12:37:20;3.50;;;0.80;;
80199;SDS011;69520;44.900;-0.764;2023-07-13T12:39:47;4.25;;;1.00;;
80199;SDS011;69520;44.900;-0.764;2023-07-13T12:42:18;5.57;;;1.02;;
80199;SDS011;69520;44.900;-0.764;2023-07-13T12:44:55;3.10;;;0.73;;
80199;SDS011;69520;44.900;-0.764;2023-07-13T12:47:23;3.65;;;1.00;;
80199;SDS011;69520;44.900;-0.764;2023-07-13T12:49:50;4.15;;;0.90;;
80199;SDS011;69520;44.900;-0.764;2023-07-13T12:52:17;3.85;;;0.85;;
80199;SDS011;69520;44.900;-0.764;2023-07-13T12:54:52;3.50;;;0.90;;
80199;SDS011;69520;44.900;-0.764;2023-07-13T12:57:22;4.03;;;1.03;;
80199;SDS011;69520;44.900;-0.764;2023-07-13T12:59:51;3.53;;;0.80;;
80199;SDS011;69520;44.900;-0.764;2023-07-13T13:02:22;3.00;;;0.80;;
80199;SDS011;69520;44.900;-0.764;2023-07-13T13:04:51;3.22;;;1.05;;
80199;SDS011;69520;44.900;-0.764;2023-07-13T13:07:17;4.72;;;1.00;;
80199;SDS011;69520;44.900;-0.764;2023-07-13T13:09:45;4.63;;;0.90;;
80199;SDS011;69520;44.900;-0.764;2023-07-13T13:12:12;2.92;;;0.80;;
80199;SDS011;69520;44.900;-0.764;2023-07-13T13:14:38;3.63;;;1.00;;
80199;SDS011;69520;44.900;-0.764;2023-07-13T13:17:08;3.67;;;0.80;;
80199;SDS011;69520;44.900;-0.764;2023-07-13T13:19:44;3.20;;;0.80;;
80199;SDS011;69520;44.900;-0.764;2023-07-13T13:22:10;5.53;;;1.00;;
80199;SDS011;69520;44.900;-0.764;2023-07-13T13:24:36;3.65;;;0.90;;
80199;SDS011;69520;44.900;-0.764;2023-07-13T13:27:02;5.15;;;0.80;;
80199;SDS011;69520;44.900;-0.764;2023-07-13T13:29:28;3.25;;;0.80;;
80199;SDS011;69520;44.900;-0.764;2023-07-13T13:31:56;2.17;;;0.70;;
80199;SDS011;69520;44.900;-0.764;2023-07-13T13:34:23;5.13;;;0.90;;
80199;SDS011;69520;44.900;-0.764;2023-07-13T13:36:49;3.05;;;0.90;;
80199;SDS011;69520;44.900;-0.764;2023-07-13T13:41:47;4.03;;;1.00;;
80199;SDS011;69520;44.900;-0.764;2023-07-13T13:44:14;4.15;;;0.90;;
80199;SDS011;69520;44.900;-0.764;2023-07-13T13:46:41;4.03;;;0.90;;
80199;SDS011;69520;44.900;-0.764;2023-07-13T13:49:13;4.35;;;0.98;;
80199;SDS011;69520;44.900;-0.764;2023-07-13T13:51:39;3.60;;;0.90;;
80199;SDS011;69520;44.900;-0.764;2023-07-13T13:54:08;5.40;;;1.10;;
80199;SDS011;69520;44.900;-0.764;2023-07-13T13:56:35;3.97;;;0.93;;
80199;SDS011;69520;44.900;-0.764;2023-07-13T13:59:01;4.00;;;0.90;;
80199;SDS011;69520;44.900;-0.764;2023-07-13T14:01:28;5.00;;;1.00;;
80199;SDS011;69520;44.900;-0.764;2023-07-13T14:03:55;4.95;;;0.90;;
80199;SDS011;69520;44.900;-0.764;2023-07-13T14:06:21;4.45;;;1.17;;
80199;SDS011;69520;44.900;-0.764;2023-07-13T14:08:47;4.03;;;0.93;;
80199;SDS011;69520;44.900;-0.764;2023-07-13T14:11:14;7.07;;;3.63;;
80199;SDS011;69520;44.900;-0.764;2023-07-13T14:13:44;13.80;;;9.43;;
80199;SDS011;69520;44.900;-0.764;2023-07-13T14:16:12;4.70;;;1.50;;
80199;SDS011;69520;44.900;-0.764;2023-07-13T14:18:40;4.20;;;0.90;;
80199;SDS011;69520;44.900;-0.764;2023-07-13T14:21:22;3.97;;;1.08;;
80199;SDS011;69520;44.900;-0.764;2023-07-13T14:23:48;4.93;;;0.90;;
80199;SDS011;69520;44.900;-0.764;2023-07-13T14:26:22;3.88;;;0.93;;
80199;SDS011;69520;44.900;-0.764;2023-07-13T14:28:50;3.97;;;0.90;;
80199;SDS011;69520;44.900;-0.764;2023-07-13T14:31:17;3.53;;;1.00;;
80199;SDS011;69520;44.900;-0.764;2023-07-13T14:33:44;4.22;;;1.00;;
80199;SDS011;69520;44.900;-0.764;2023-07-13T14:38:48;4.35;;;1.08;;
80199;SDS011;69520;44.900;-0.764;2023-07-13T14:41:15;4.47;;;1.08;;
80199;SDS011;69520;44.900;-0.764;2023-07-13T14:43:41;4.47;;;1.00;;
80199;SDS011;69520;44.900;-0.764;2023-07-13T14:46:09;3.75;;;1.00;;
80199;SDS011;69520;44.900;-0.764;2023-07-13T14:48:43;5.27;;;0.90;;
80199;SDS011;69520;44.900;-0.764;2023-07-13T14:51:09;4.25;;;1.00;;
80199;SDS011;69520;44.900;-0.764;2023-07-13T14:53:36;3.80;;;1.00;;
80199;SDS011;69520;44.900;-0.764;2023-07-13T14:56:08;4.55;;;0.93;;
80199;SDS011;69520;44.900;-0.764;2023-07-13T14:58:35;3.80;;;0.90;;
80199;SDS011;69520;44.900;-0.764;2023-07-13T15:01:01;4.93;;;0.90;;
80199;SDS011;69520;44.900;-0.764;2023-07-13T15:03:27;3.72;;;1.20;;
80199;SDS011;69520;44.900;-0.764;2023-07-13T15:05:53;3.78;;;1.13;;
80199;SDS011;69520;44.900;-0.764;2023-07-13T15:08:19;3.20;;;0.90;;
80199;SDS011;69520;44.900;-0.764;2023-07-13T15:10:45;3.35;;;0.90;;
80199;SDS011;69520;44.900;-0.764;2023-07-13T15:13:18;3.63;;;0.80;;